sensor_id;sensor_type;location;lat;lon;timestamp;temperature;humidity
39345;DHT22;25061;51.954;6.996;2023-01-24T00:00:35;2.30;99.90
39345;DHT22;25061;51.954;6.996;2023-01-24T00:03:00;2.30;99.90
39345;DHT22;25061;51.954;6.996;2023-01-24T00:05:26;2.30;99.90
39345;DHT22;25061;51.954;6.996;2023-01-24T00:07:52;2.30;99.90
39345;DHT22;25061;51.954;6.996;2023-01-24T00:10:17;2.30;99.90
39345;DHT22;25061;51.954;6.996;2023-01-24T00:12:44;2.30;99.90
39345;DHT22;25061;51.954;6.996;2023-01-24T00:15:10;2.30;99.90
39345;DHT22;25061;51.954;6.996;2023-01-24T00:17:35;2.30;99.90
39345;DHT22;25061;51.954;6.996;2023-01-24T00:20:02;2.30;99.90
39345;DHT22;25061;51.954;6.996;2023-01-24T00:22:30;2.30;99.90
39345;DHT22;25061;51.954;6.996;2023-01-24T00:24:55;2.30;99.90
39345;DHT22;25061;51.954;6.996;2023-01-24T00:27:21;2.30;99.90
39345;DHT22;25061;51.954;6.996;2023-01-24T00:29:46;2.30;99.90
39345;DHT22;25061;51.954;6.996;2023-01-24T00:32:12;2.30;99.90
39345;DHT22;25061;51.954;6.996;2023-01-24T00:34:37;2.30;99.90
39345;DHT22;25061;51.954;6.996;2023-01-24T00:37:03;2.30;99.90
39345;DHT22;25061;51.954;6.996;2023-01-24T00:39:28;2.30;99.90
39345;DHT22;25061;51.954;6.996;2023-01-24T00:41:54;2.30;99.90
39345;DHT22;25061;51.954;6.996;2023-01-24T00:44:19;2.20;99.90
39345;DHT22;25061;51.954;6.996;2023-01-24T00:46:45;2.20;99.90
39345;DHT22;25061;51.954;6.996;2023-01-24T00:49:10;2.20;99.90
39345;DHT22;25061;51.954;6.996;2023-01-24T00:51:36;2.30;99.90
39345;DHT22;25061;51.954;6.996;2023-01-24T00:54:01;2.30;99.90
39345;DHT22;25061;51.954;6.996;2023-01-24T00:56:27;2.20;99.90
39345;DHT22;25061;51.954;6.996;2023-01-24T00:58:53;2.20;99.90
39345;DHT22;25061;51.954;6.996;2023-01-24T01:01:19;2.20;99.90
39345;DHT22;25061;51.954;6.996;2023-01-24T01:03:45;2.20;99.90
39345;DHT22;25061;51.954;6.996;2023-01-24T01:06:13;2.20;99.90
39345;DHT22;25061;51.954;6.996;2023-01-24T01:08:41;2.20;99.90
39345;DHT22;25061;51.954;6.996;2023-01-24T01:11:07;2.20;99.90
39345;DHT22;25061;51.954;6.996;2023-01-24T01:13:33;2.20;99.90
39345;DHT22;25061;51.954;6.996;2023-01-24T01:16:02;2.20;99.90
39345;DHT22;25061;51.954;6.996;2023-01-24T01:18:28;2.20;99.90
39345;DHT22;25061;51.954;6.996;2023-01-24T01:20:54;2.20;99.90
39345;DHT22;25061;51.954;6.996;2023-01-24T01:23:19;2.20;99.90
39345;DHT22;25061;51.954;6.996;2023-01-24T01:25:45;2.20;99.90
39345;DHT22;25061;51.954;6.996;2023-01-24T01:28:11;2.20;99.90
39345;DHT22;25061;51.954;6.996;2023-01-24T01:30:36;2.10;99.90
39345;DHT22;25061;51.954;6.996;2023-01-24T01:33:02;2.10;99.90
39345;DHT22;25061;51.954;6.996;2023-01-24T01:35:27;2.10;99.90
39345;DHT22;25061;51.954;6.996;2023-01-24T01:37:53;2.20;99.90
39345;DHT22;25061;51.954;6.996;2023-01-24T01:40:18;2.20;99.90
39345;DHT22;25061;51.954;6.996;2023-01-24T01:42:55;2.20;99.90
39345;DHT22;25061;51.954;6.996;2023-01-24T01:47:57;2.10;99.90
39345;DHT22;25061;51.954;6.996;2023-01-24T01:50:27;2.10;99.90
39345;DHT22;25061;51.954;6.996;2023-01-24T01:52:56;2.10;99.90
39345;DHT22;25061;51.954;6.996;2023-01-24T01:55:25;2.10;99.90
39345;DHT22;25061;51.954;6.996;2023-01-24T01:57:52;2.10;99.90
39345;DHT22;25061;51.954;6.996;2023-01-24T02:00:21;2.10;99.90
39345;DHT22;25061;51.954;6.996;2023-01-24T02:02:59;2.10;99.90
39345;DHT22;25061;51.954;6.996;2023-01-24T02:05:46;2.10;99.90
39345;DHT22;25061;51.954;6.996;2023-01-24T02:08:16;2.10;99.90
39345;DHT22;25061;51.954;6.996;2023-01-24T02:10:43;2.10;99.90
39345;DHT22;25061;51.954;6.996;2023-01-24T02:13:28;2.00;99.90
39345;DHT22;25061;51.954;6.996;2023-01-24T02:15:53;2.00;99.90
39345;DHT22;25061;51.954;6.996;2023-01-24T02:18:30;2.00;99.90
39345;DHT22;25061;51.954;6.996;2023-01-24T02:20:56;2.00;99.90
39345;DHT22;25061;51.954;6.996;2023-01-24T02:26:28;2.00;99.90
39345;DHT22;25061;51.954;6.996;2023-01-24T02:29:08;2.00;99.90
39345;DHT22;25061;51.954;6.996;2023-01-24T02:31:53;2.00;99.90
39345;DHT22;25061;51.954;6.996;2023-01-24T02:34:19;2.00;99.90
39345;DHT22;25061;51.954;6.996;2023-01-24T02:36:46;1.90;99.90
39345;DHT22;25061;51.954;6.996;2023-01-24T02:39:17;2.00;99.90
39345;DHT22;25061;51.954;6.996;2023-01-24T02:41:50;1.90;99.90
39345;DHT22;25061;51.954;6.996;2023-01-24T02:44:23;2.00;99.90
39345;DHT22;25061;51.954;6.996;2023-01-24T02:46:50;2.00;99.90
39345;DHT22;25061;51.954;6.996;2023-01-24T02:49:17;2.00;99.90
39345;DHT22;25061;51.954;6.996;2023-01-24T02:51:42;1.90;99.90
39345;DHT22;25061;51.954;6.996;2023-01-24T02:54:27;1.90;99.90
39345;DHT22;25061;51.954;6.996;2023-01-24T02:56:52;1.90;99.90
39345;DHT22;25061;51.954;6.996;2023-01-24T02:59:36;2.00;99.90
39345;DHT22;25061;51.954;6.996;2023-01-24T03:02:02;2.00;99.90
39345;DHT22;25061;51.954;6.996;2023-01-24T03:04:27;1.90;99.90
39345;DHT22;25061;51.954;6.996;2023-01-24T03:06:53;1.90;99.90
39345;DHT22;25061;51.954;6.996;2023-01-24T03:09:18;1.90;99.90
39345;DHT22;25061;51.954;6.996;2023-01-24T03:11:48;1.90;99.90
39345;DHT22;25061;51.954;6.996;2023-01-24T03:14:15;1.90;99.90
39345;DHT22;25061;51.954;6.996;2023-01-24T03:17:00;1.90;99.90
39345;DHT22;25061;51.954;6.996;2023-01-24T03:19:45;1.90;99.90
39345;DHT22;25061;51.954;6.996;2023-01-24T03:22:29;1.90;99.90
39345;DHT22;25061;51.954;6.996;2023-01-24T03:25:13;1.90;99.90
39345;DHT22;25061;51.954;6.996;2023-01-24T03:28:05;1.90;99.90
39345;DHT22;25061;51.954;6.996;2023-01-24T03:30:50;1.80;99.90
39345;DHT22;25061;51.954;6.996;2023-01-24T03:33:34;1.80;99.90
39345;DHT22;25061;51.954;6.996;2023-01-24T03:36:18;1.80;99.90
39345;DHT22;25061;51.954;6.996;2023-01-24T03:38:45;1.80;99.90
39345;DHT22;25061;51.954;6.996;2023-01-24T03:41:29;1.80;99.90
39345;DHT22;25061;51.954;6.996;2023-01-24T03:43:55;1.70;99.90
39345;DHT22;25061;51.954;6.996;2023-01-24T03:46:21;1.70;99.90
39345;DHT22;25061;51.954;6.996;2023-01-24T03:48:46;1.80;99.90
39345;DHT22;25061;51.954;6.996;2023-01-24T03:51:12;1.70;99.90
39345;DHT22;25061;51.954;6.996;2023-01-24T03:53:56;1.80;99.90
39345;DHT22;25061;51.954;6.996;2023-01-24T03:56:22;1.80;99.90
39345;DHT22;25061;51.954;6.996;2023-01-24T03:58:47;1.80;99.90
39345;DHT22;25061;51.954;6.996;2023-01-24T04:01:13;1.70;99.90
39345;DHT22;25061;51.954;6.996;2023-01-24T04:03:39;1.70;99.90
39345;DHT22;25061;51.954;6.996;2023-01-24T04:06:04;1.70;99.90
39345;DHT22;25061;51.954;6.996;2023-01-24T04:08:30;1.80;99.90
39345;DHT22;25061;51.954;6.996;2023-01-24T04:10:56;1.80;99.90
39345;DHT22;25061;51.954;6.996;2023-01-24T04:13:22;1.70;99.90
39345;DHT22;25061;51.954;6.996;2023-01-24T04:15:47;1.70;99.90
39345;DHT22;25061;51.954;6.996;2023-01-24T04:18:13;1.70;99.90
39345;DHT22;25061;51.954;6.996;2023-01-24T04:20:39;1.70;99.90
39345;DHT22;25061;51.954;6.996;2023-01-24T04:23:06;1.70;99.90
39345;DHT22;25061;51.954;6.996;2023-01-24T04:25:32;1.70;99.90
39345;DHT22;25061;51.954;6.996;2023-01-24T04:27:58;1.70;99.90
39345;DHT22;25061;51.954;6.996;2023-01-24T04:30:23;1.80;99.90
39345;DHT22;25061;51.954;6.996;2023-01-24T04:32:49;1.70;99.90
39345;DHT22;25061;51.954;6.996;2023-01-24T04:35:17;1.70;99.90
39345;DHT22;25061;51.954;6.996;2023-01-24T04:37:43;1.70;99.90
39345;DHT22;25061;51.954;6.996;2023-01-24T04:40:09;1.70;99.90
39345;DHT22;25061;51.954;6.996;2023-01-24T04:42:34;1.70;99.90
39345;DHT22;25061;51.954;6.996;2023-01-24T04:45:02;1.60;99.90
39345;DHT22;25061;51.954;6.996;2023-01-24T04:47:27;1.70;99.90
39345;DHT22;25061;51.954;6.996;2023-01-24T04:49:53;1.60;99.90
39345;DHT22;25061;51.954;6.996;2023-01-24T04:52:18;1.70;99.90
39345;DHT22;25061;51.954;6.996;2023-01-24T04:54:44;1.60;99.90
39345;DHT22;25061;51.954;6.996;2023-01-24T04:57:11;1.70;99.90
39345;DHT22;25061;51.954;6.996;2023-01-24T04:59:37;1.60;99.90
39345;DHT22;25061;51.954;6.996;2023-01-24T05:02:03;1.60;99.90
39345;DHT22;25061;51.954;6.996;2023-01-24T05:04:28;1.70;99.90
39345;DHT22;25061;51.954;6.996;2023-01-24T05:06:54;1.70;99.90
39345;DHT22;25061;51.954;6.996;2023-01-24T05:09:19;1.60;99.90
39345;DHT22;25061;51.954;6.996;2023-01-24T05:11:45;1.60;99.90
39345;DHT22;25061;51.954;6.996;2023-01-24T05:14:10;1.60;99.90
39345;DHT22;25061;51.954;6.996;2023-01-24T05:16:36;1.60;99.90
39345;DHT22;25061;51.954;6.996;2023-01-24T05:19:03;1.60;99.90
39345;DHT22;25061;51.954;6.996;2023-01-24T05:21:29;1.60;99.90
39345;DHT22;25061;51.954;6.996;2023-01-24T05:23:54;1.50;99.90
39345;DHT22;25061;51.954;6.996;2023-01-24T05:26:21;1.60;99.90
39345;DHT22;25061;51.954;6.996;2023-01-24T05:28:47;1.60;99.90
39345;DHT22;25061;51.954;6.996;2023-01-24T05:31:13;1.60;99.90
39345;DHT22;25061;51.954;6.996;2023-01-24T05:33:39;1.60;99.90
39345;DHT22;25061;51.954;6.996;2023-01-24T05:36:17;1.60;99.90
39345;DHT22;25061;51.954;6.996;2023-01-24T05:38:44;1.60;99.90
39345;DHT22;25061;51.954;6.996;2023-01-24T05:41:12;1.60;99.90
39345;DHT22;25061;51.954;6.996;2023-01-24T05:43:38;1.60;99.90
39345;DHT22;25061;51.954;6.996;2023-01-24T05:46:06;1.60;99.90
39345;DHT22;25061;51.954;6.996;2023-01-24T05:48:33;1.60;99.90
39345;DHT22;25061;51.954;6.996;2023-01-24T05:51:00;1.60;99.90
39345;DHT22;25061;51.954;6.996;2023-01-24T05:53:27;1.60;99.90
39345;DHT22;25061;51.954;6.996;2023-01-24T05:55:57;1.60;99.90
39345;DHT22;25061;51.954;6.996;2023-01-24T05:58:28;1.50;99.90
39345;DHT22;25061;51.954;6.996;2023-01-24T06:00:53;1.60;99.90
39345;DHT22;25061;51.954;6.996;2023-01-24T06:03:19;1.60;99.90
39345;DHT22;25061;51.954;6.996;2023-01-24T06:05:50;1.60;99.90
39345;DHT22;25061;51.954;6.996;2023-01-24T06:08:16;1.60;99.90
39345;DHT22;25061;51.954;6.996;2023-01-24T06:10:42;1.60;99.90
39345;DHT22;25061;51.954;6.996;2023-01-24T06:13:08;1.60;99.90
39345;DHT22;25061;51.954;6.996;2023-01-24T06:15:34;1.60;99.90
39345;DHT22;25061;51.954;6.996;2023-01-24T06:18:00;1.60;99.90
39345;DHT22;25061;51.954;6.996;2023-01-24T06:20:26;1.60;99.90
39345;DHT22;25061;51.954;6.996;2023-01-24T06:22:54;1.50;99.90
39345;DHT22;25061;51.954;6.996;2023-01-24T06:25:23;1.50;99.90
39345;DHT22;25061;51.954;6.996;2023-01-24T06:27:49;1.50;99.90
39345;DHT22;25061;51.954;6.996;2023-01-24T06:30:17;1.50;99.90
39345;DHT22;25061;51.954;6.996;2023-01-24T06:38:19;1.50;99.90
39345;DHT22;25061;51.954;6.996;2023-01-24T06:40:45;1.50;99.90
39345;DHT22;25061;51.954;6.996;2023-01-24T06:43:11;1.50;99.90
39345;DHT22;25061;51.954;6.996;2023-01-24T06:45:37;1.50;99.90
39345;DHT22;25061;51.954;6.996;2023-01-24T06:48:13;1.50;99.90
39345;DHT22;25061;51.954;6.996;2023-01-24T06:50:39;1.50;99.90
39345;DHT22;25061;51.954;6.996;2023-01-24T06:53:04;1.50;99.90
39345;DHT22;25061;51.954;6.996;2023-01-24T06:55:30;1.40;99.90
39345;DHT22;25061;51.954;6.996;2023-01-24T06:58:00;1.40;99.90
39345;DHT22;25061;51.954;6.996;2023-01-24T07:00:27;1.50;99.90
39345;DHT22;25061;51.954;6.996;2023-01-24T07:03:05;1.50;99.90
39345;DHT22;25061;51.954;6.996;2023-01-24T07:05:40;1.40;99.90
39345;DHT22;25061;51.954;6.996;2023-01-24T07:08:07;1.40;99.90
39345;DHT22;25061;51.954;6.996;2023-01-24T07:10:33;1.40;99.90
39345;DHT22;25061;51.954;6.996;2023-01-24T07:12:58;1.40;99.90
39345;DHT22;25061;51.954;6.996;2023-01-24T07:15:32;1.40;99.90
39345;DHT22;25061;51.954;6.996;2023-01-24T07:18:19;1.40;99.90
39345;DHT22;25061;51.954;6.996;2023-01-24T07:20:45;1.40;99.90
39345;DHT22;25061;51.954;6.996;2023-01-24T07:23:21;1.50;99.90
39345;DHT22;25061;51.954;6.996;2023-01-24T07:25:47;1.50;99.90
39345;DHT22;25061;51.954;6.996;2023-01-24T07:28:13;1.40;99.90
39345;DHT22;25061;51.954;6.996;2023-01-24T07:30:39;1.40;99.90
39345;DHT22;25061;51.954;6.996;2023-01-24T07:33:04;1.50;99.90
39345;DHT22;25061;51.954;6.996;2023-01-24T07:35:30;1.40;99.90
39345;DHT22;25061;51.954;6.996;2023-01-24T07:37:55;1.50;99.90
39345;DHT22;25061;51.954;6.996;2023-01-24T07:40:22;1.40;99.90
39345;DHT22;25061;51.954;6.996;2023-01-24T07:42:48;1.40;99.90
39345;DHT22;25061;51.954;6.996;2023-01-24T07:45:13;1.40;99.90
39345;DHT22;25061;51.954;6.996;2023-01-24T07:47:39;1.40;99.90
39345;DHT22;25061;51.954;6.996;2023-01-24T07:50:05;1.40;99.90
39345;DHT22;25061;51.954;6.996;2023-01-24T07:52:30;1.40;99.90
39345;DHT22;25061;51.954;6.996;2023-01-24T07:55:13;1.40;99.90
39345;DHT22;25061;51.954;6.996;2023-01-24T07:57:39;1.40;99.90
39345;DHT22;25061;51.954;6.996;2023-01-24T08:00:04;1.50;99.90
39345;DHT22;25061;51.954;6.996;2023-01-24T08:02:30;1.50;99.90
39345;DHT22;25061;51.954;6.996;2023-01-24T08:04:56;1.50;99.90
39345;DHT22;25061;51.954;6.996;2023-01-24T08:07:27;1.50;99.90
39345;DHT22;25061;51.954;6.996;2023-01-24T08:09:53;1.50;99.90
39345;DHT22;25061;51.954;6.996;2023-01-24T08:12:19;1.40;99.90
39345;DHT22;25061;51.954;6.996;2023-01-24T08:14:44;1.50;99.90
39345;DHT22;25061;51.954;6.996;2023-01-24T08:17:11;1.50;99.90
39345;DHT22;25061;51.954;6.996;2023-01-24T08:19:37;1.50;99.90
39345;DHT22;25061;51.954;6.996;2023-01-24T08:22:10;1.50;99.90
39345;DHT22;25061;51.954;6.996;2023-01-24T08:24:36;1.50;99.90
39345;DHT22;25061;51.954;6.996;2023-01-24T08:27:02;1.50;99.90
39345;DHT22;25061;51.954;6.996;2023-01-24T08:29:28;1.50;99.90
39345;DHT22;25061;51.954;6.996;2023-01-24T08:31:54;1.50;99.90
39345;DHT22;25061;51.954;6.996;2023-01-24T08:34:20;1.50;99.90
39345;DHT22;25061;51.954;6.996;2023-01-24T08:36:46;1.50;99.90
39345;DHT22;25061;51.954;6.996;2023-01-24T08:39:11;1.50;99.90
39345;DHT22;25061;51.954;6.996;2023-01-24T08:41:37;1.50;99.90
39345;DHT22;25061;51.954;6.996;2023-01-24T08:44:04;1.50;99.90
39345;DHT22;25061;51.954;6.996;2023-01-24T08:46:30;1.40;99.90
39345;DHT22;25061;51.954;6.996;2023-01-24T08:48:55;1.50;99.90
39345;DHT22;25061;51.954;6.996;2023-01-24T08:51:21;1.50;99.90
39345;DHT22;25061;51.954;6.996;2023-01-24T08:53:47;1.50;99.90
39345;DHT22;25061;51.954;6.996;2023-01-24T08:56:12;1.60;99.90
39345;DHT22;25061;51.954;6.996;2023-01-24T08:58:38;1.50;99.90
39345;DHT22;25061;51.954;6.996;2023-01-24T09:01:08;1.60;99.90
39345;DHT22;25061;51.954;6.996;2023-01-24T09:03:34;1.60;99.90
39345;DHT22;25061;51.954;6.996;2023-01-24T09:06:00;1.60;99.90
39345;DHT22;25061;51.954;6.996;2023-01-24T09:08:26;1.60;99.90
39345;DHT22;25061;51.954;6.996;2023-01-24T09:10:52;1.60;99.90
39345;DHT22;25061;51.954;6.996;2023-01-24T09:13:17;1.60;99.90
39345;DHT22;25061;51.954;6.996;2023-01-24T09:15:43;1.60;99.90
39345;DHT22;25061;51.954;6.996;2023-01-24T09:18:09;1.60;99.90
39345;DHT22;25061;51.954;6.996;2023-01-24T09:20:34;1.70;99.90
39345;DHT22;25061;51.954;6.996;2023-01-24T09:23:06;1.70;99.90
39345;DHT22;25061;51.954;6.996;2023-01-24T09:25:32;1.60;99.90
39345;DHT22;25061;51.954;6.996;2023-01-24T09:27:57;1.60;99.90
39345;DHT22;25061;51.954;6.996;2023-01-24T09:30:23;1.70;99.90
39345;DHT22;25061;51.954;6.996;2023-01-24T09:32:49;1.70;99.90
39345;DHT22;25061;51.954;6.996;2023-01-24T09:35:15;1.70;99.90
39345;DHT22;25061;51.954;6.996;2023-01-24T09:37:40;1.70;99.90
39345;DHT22;25061;51.954;6.996;2023-01-24T09:40:42;1.70;99.90
39345;DHT22;25061;51.954;6.996;2023-01-24T09:43:21;1.70;99.90
39345;DHT22;25061;51.954;6.996;2023-01-24T09:48:38;1.60;99.90
39345;DHT22;25061;51.954;6.996;2023-01-24T09:51:10;1.60;99.90
39345;DHT22;25061;51.954;6.996;2023-01-24T09:53:41;1.60;99.90
39345;DHT22;25061;51.954;6.996;2023-01-24T09:56:19;1.60;99.90
39345;DHT22;25061;51.954;6.996;2023-01-24T09:59:19;1.70;99.90
39345;DHT22;25061;51.954;6.996;2023-01-24T10:01:48;1.70;99.90
39345;DHT22;25061;51.954;6.996;2023-01-24T10:04:20;1.70;99.90
39345;DHT22;25061;51.954;6.996;2023-01-24T10:06:58;1.70;99.90
39345;DHT22;25061;51.954;6.996;2023-01-24T10:09:42;1.70;99.90
39345;DHT22;25061;51.954;6.996;2023-01-24T10:12:24;1.70;99.90
39345;DHT22;25061;51.954;6.996;2023-01-24T10:17:57;1.70;99.90
39345;DHT22;25061;51.954;6.996;2023-01-24T10:25:28;1.80;99.90
39345;DHT22;25061;51.954;6.996;2023-01-24T10:27:57;1.70;99.90
39345;DHT22;25061;51.954;6.996;2023-01-24T10:30:41;1.70;99.90
39345;DHT22;25061;51.954;6.996;2023-01-24T10:33:18;1.80;99.90
39345;DHT22;25061;51.954;6.996;2023-01-24T10:36:00;1.80;99.90
39345;DHT22;25061;51.954;6.996;2023-01-24T10:38:27;1.70;99.90
39345;DHT22;25061;51.954;6.996;2023-01-24T10:41:07;1.70;99.90
39345;DHT22;25061;51.954;6.996;2023-01-24T10:43:38;1.70;99.90
39345;DHT22;25061;51.954;6.996;2023-01-24T10:46:31;1.70;99.90
39345;DHT22;25061;51.954;6.996;2023-01-24T10:49:00;1.70;99.90
39345;DHT22;25061;51.954;6.996;2023-01-24T10:51:27;1.70;99.90
39345;DHT22;25061;51.954;6.996;2023-01-24T10:54:00;1.70;99.90
39345;DHT22;25061;51.954;6.996;2023-01-24T10:56:26;1.70;99.90
39345;DHT22;25061;51.954;6.996;2023-01-24T10:59:19;1.70;99.90
39345;DHT22;25061;51.954;6.996;2023-01-24T11:01:45;1.60;99.90
39345;DHT22;25061;51.954;6.996;2023-01-24T11:04:27;1.60;99.90
39345;DHT22;25061;51.954;6.996;2023-01-24T11:06:53;1.60;99.90
39345;DHT22;25061;51.954;6.996;2023-01-24T11:09:21;1.70;99.90
39345;DHT22;25061;51.954;6.996;2023-01-24T11:11:53;1.90;99.90
39345;DHT22;25061;51.954;6.996;2023-01-24T11:14:22;1.90;99.90
39345;DHT22;25061;51.954;6.996;2023-01-24T11:16:54;1.90;99.90
39345;DHT22;25061;51.954;6.996;2023-01-24T11:19:32;1.80;99.90
39345;DHT22;25061;51.954;6.996;2023-01-24T11:22:00;1.80;99.90
39345;DHT22;25061;51.954;6.996;2023-01-24T11:24:27;1.70;99.90
39345;DHT22;25061;51.954;6.996;2023-01-24T11:26:55;1.70;99.90
39345;DHT22;25061;51.954;6.996;2023-01-24T11:29:21;1.60;99.90
39345;DHT22;25061;51.954;6.996;2023-01-24T11:31:56;1.60;99.90
39345;DHT22;25061;51.954;6.996;2023-01-24T11:48:21;1.80;99.90
39345;DHT22;25061;51.954;6.996;2023-01-24T11:51:01;1.80;99.90
39345;DHT22;25061;51.954;6.996;2023-01-24T12:09:33;1.80;99.90
39345;DHT22;25061;51.954;6.996;2023-01-24T12:12:09;1.90;99.90
39345;DHT22;25061;51.954;6.996;2023-01-24T12:14:50;1.80;99.90
39345;DHT22;25061;51.954;6.996;2023-01-24T12:17:45;1.80;99.90
39345;DHT22;25061;51.954;6.996;2023-01-24T12:20:41;1.80;99.90
39345;DHT22;25061;51.954;6.996;2023-01-24T12:23:35;1.80;99.90
39345;DHT22;25061;51.954;6.996;2023-01-24T12:26:18;1.80;99.90
39345;DHT22;25061;51.954;6.996;2023-01-24T12:28:47;1.70;99.90
39345;DHT22;25061;51.954;6.996;2023-01-24T12:31:22;1.80;99.90
39345;DHT22;25061;51.954;6.996;2023-01-24T12:34:03;1.80;99.90
39345;DHT22;25061;51.954;6.996;2023-01-24T12:36:53;1.80;99.90
39345;DHT22;25061;51.954;6.996;2023-01-24T12:39:21;1.70;99.90
39345;DHT22;25061;51.954;6.996;2023-01-24T12:42:16;1.60;99.90
39345;DHT22;25061;51.954;6.996;2023-01-24T12:44:55;1.60;99.90
39345;DHT22;25061;51.954;6.996;2023-01-24T12:52:52;1.60;99.90
39345;DHT22;25061;51.954;6.996;2023-01-24T12:55:24;1.60;99.90
39345;DHT22;25061;51.954;6.996;2023-01-24T12:58:02;1.70;99.90
39345;DHT22;25061;51.954;6.996;2023-01-24T13:00:45;1.80;99.90
39345;DHT22;25061;51.954;6.996;2023-01-24T13:03:34;1.70;99.90
39345;DHT22;25061;51.954;6.996;2023-01-24T13:09:13;1.80;99.90
39345;DHT22;25061;51.954;6.996;2023-01-24T13:11:45;1.80;99.90
39345;DHT22;25061;51.954;6.996;2023-01-24T13:14:19;1.90;99.90
39345;DHT22;25061;51.954;6.996;2023-01-24T13:17:30;1.80;99.90
39345;DHT22;25061;51.954;6.996;2023-01-24T13:20:04;1.80;99.90
39345;DHT22;25061;51.954;6.996;2023-01-24T13:28:49;1.70;99.90
39345;DHT22;25061;51.954;6.996;2023-01-24T13:34:22;1.70;99.90
39345;DHT22;25061;51.954;6.996;2023-01-24T13:36:51;1.70;99.90
39345;DHT22;25061;51.954;6.996;2023-01-24T13:39:31;1.70;99.90
39345;DHT22;25061;51.954;6.996;2023-01-24T13:42:03;1.60;99.90
39345;DHT22;25061;51.954;6.996;2023-01-24T13:44:32;1.70;99.90
39345;DHT22;25061;51.954;6.996;2023-01-24T13:51:58;1.70;99.90
39345;DHT22;25061;51.954;6.996;2023-01-24T13:54:38;1.70;99.90
39345;DHT22;25061;51.954;6.996;2023-01-24T13:59:42;1.70;99.90
39345;DHT22;25061;51.954;6.996;2023-01-24T14:02:31;1.70;99.90
39345;DHT22;25061;51.954;6.996;2023-01-24T14:04:58;1.70;99.90
39345;DHT22;25061;51.954;6.996;2023-01-24T14:07:38;1.70;99.90
39345;DHT22;25061;51.954;6.996;2023-01-24T14:10:06;1.70;99.90
39345;DHT22;25061;51.954;6.996;2023-01-24T14:12:37;1.70;99.90
39345;DHT22;25061;51.954;6.996;2023-01-24T14:20:44;1.70;99.90
39345;DHT22;25061;51.954;6.996;2023-01-24T14:23:30;1.80;99.90
39345;DHT22;25061;51.954;6.996;2023-01-24T14:25:57;1.70;99.90
39345;DHT22;25061;51.954;6.996;2023-01-24T14:28:31;1.60;99.90
39345;DHT22;25061;51.954;6.996;2023-01-24T14:31:04;1.60;99.90
39345;DHT22;25061;51.954;6.996;2023-01-24T14:34:04;1.50;99.90
39345;DHT22;25061;51.954;6.996;2023-01-24T14:36:33;1.60;99.90
39345;DHT22;25061;51.954;6.996;2023-01-24T14:39:34;1.50;99.90
39345;DHT22;25061;51.954;6.996;2023-01-24T14:42:04;1.60;99.90
39345;DHT22;25061;51.954;6.996;2023-01-24T14:44:36;1.70;99.90
39345;DHT22;25061;51.954;6.996;2023-01-24T14:47:18;1.70;99.90
39345;DHT22;25061;51.954;6.996;2023-01-24T14:49:55;1.70;99.90
39345;DHT22;25061;51.954;6.996;2023-01-24T14:52:29;1.60;99.90
39345;DHT22;25061;51.954;6.996;2023-01-24T14:55:01;1.60;99.90
39345;DHT22;25061;51.954;6.996;2023-01-24T14:57:31;1.60;99.90
39345;DHT22;25061;51.954;6.996;2023-01-24T15:00:06;1.60;99.90
39345;DHT22;25061;51.954;6.996;2023-01-24T15:02:32;1.60;99.90
39345;DHT22;25061;51.954;6.996;2023-01-24T15:04:58;1.60;99.90
39345;DHT22;25061;51.954;6.996;2023-01-24T15:07:24;1.60;99.90
39345;DHT22;25061;51.954;6.996;2023-01-24T15:09:50;1.60;99.90
39345;DHT22;25061;51.954;6.996;2023-01-24T15:12:31;1.60;99.90
39345;DHT22;25061;51.954;6.996;2023-01-24T15:14:57;1.60;99.90
39345;DHT22;25061;51.954;6.996;2023-01-24T15:17:27;1.50;99.90
39345;DHT22;25061;51.954;6.996;2023-01-24T15:19:57;1.60;99.90
39345;DHT22;25061;51.954;6.996;2023-01-24T15:22:25;1.50;99.90
39345;DHT22;25061;51.954;6.996;2023-01-24T15:24:59;1.50;99.90
39345;DHT22;25061;51.954;6.996;2023-01-24T15:32:47;1.50;99.90
39345;DHT22;25061;51.954;6.996;2023-01-24T15:38:24;1.40;99.90
39345;DHT22;25061;51.954;6.996;2023-01-24T15:41:13;1.40;99.90
39345;DHT22;25061;51.954;6.996;2023-01-24T15:44:04;1.40;99.90
39345;DHT22;25061;51.954;6.996;2023-01-24T15:46:36;1.30;99.90
39345;DHT22;25061;51.954;6.996;2023-01-24T15:49:33;1.30;99.90
39345;DHT22;25061;51.954;6.996;2023-01-24T15:54:48;1.30;99.90
39345;DHT22;25061;51.954;6.996;2023-01-24T15:57:26;1.30;99.90
39345;DHT22;25061;51.954;6.996;2023-01-24T16:02:34;1.40;99.90
39345;DHT22;25061;51.954;6.996;2023-01-24T16:05:00;1.30;99.90
39345;DHT22;25061;51.954;6.996;2023-01-24T16:07:26;1.30;99.90
39345;DHT22;25061;51.954;6.996;2023-01-24T16:09:51;1.30;99.90
39345;DHT22;25061;51.954;6.996;2023-01-24T16:12:21;1.30;99.90
39345;DHT22;25061;51.954;6.996;2023-01-24T16:14:49;1.20;99.90
39345;DHT22;25061;51.954;6.996;2023-01-24T16:17:17;1.20;99.90
39345;DHT22;25061;51.954;6.996;2023-01-24T16:19:44;1.20;99.90
39345;DHT22;25061;51.954;6.996;2023-01-24T16:22:09;1.20;99.90
39345;DHT22;25061;51.954;6.996;2023-01-24T16:24:38;1.20;99.90
39345;DHT22;25061;51.954;6.996;2023-01-24T16:27:04;1.20;99.90
39345;DHT22;25061;51.954;6.996;2023-01-24T16:29:30;1.20;99.90
39345;DHT22;25061;51.954;6.996;2023-01-24T16:31:56;1.20;99.90
39345;DHT22;25061;51.954;6.996;2023-01-24T16:34:21;1.20;99.90
39345;DHT22;25061;51.954;6.996;2023-01-24T16:36:47;1.20;99.90
39345;DHT22;25061;51.954;6.996;2023-01-24T16:39:17;1.20;99.90
39345;DHT22;25061;51.954;6.996;2023-01-24T16:41:43;1.20;99.90
39345;DHT22;25061;51.954;6.996;2023-01-24T16:44:08;1.20;99.90
39345;DHT22;25061;51.954;6.996;2023-01-24T16:46:34;1.20;99.90
39345;DHT22;25061;51.954;6.996;2023-01-24T16:48:59;1.20;99.90
39345;DHT22;25061;51.954;6.996;2023-01-24T16:51:25;1.20;99.90
39345;DHT22;25061;51.954;6.996;2023-01-24T16:53:54;1.20;99.90
39345;DHT22;25061;51.954;6.996;2023-01-24T16:56:21;1.20;99.90
39345;DHT22;25061;51.954;6.996;2023-01-24T16:58:46;1.20;99.90
39345;DHT22;25061;51.954;6.996;2023-01-24T17:01:12;1.20;99.90
39345;DHT22;25061;51.954;6.996;2023-01-24T17:03:39;1.20;99.90
39345;DHT22;25061;51.954;6.996;2023-01-24T17:06:09;1.20;99.90
39345;DHT22;25061;51.954;6.996;2023-01-24T17:08:34;1.20;99.90
39345;DHT22;25061;51.954;6.996;2023-01-24T17:11:06;1.20;99.90
39345;DHT22;25061;51.954;6.996;2023-01-24T17:13:32;1.20;99.90
39345;DHT22;25061;51.954;6.996;2023-01-24T17:16:05;1.20;99.90
39345;DHT22;25061;51.954;6.996;2023-01-24T17:18:31;1.20;99.90
39345;DHT22;25061;51.954;6.996;2023-01-24T17:21:03;1.20;99.90
39345;DHT22;25061;51.954;6.996;2023-01-24T17:23:30;1.20;99.90
39345;DHT22;25061;51.954;6.996;2023-01-24T17:26:04;1.10;99.90
39345;DHT22;25061;51.954;6.996;2023-01-24T17:28:30;1.10;99.90
39345;DHT22;25061;51.954;6.996;2023-01-24T17:30:56;1.00;99.90
39345;DHT22;25061;51.954;6.996;2023-01-24T17:33:21;1.00;99.90
39345;DHT22;25061;51.954;6.996;2023-01-24T17:35:47;1.00;99.90
39345;DHT22;25061;51.954;6.996;2023-01-24T17:38:13;1.00;99.90
39345;DHT22;25061;51.954;6.996;2023-01-24T17:40:38;1.00;99.90